Time;durP1;ratioP1;P1;durP2;ratioP2;P2;SDS_P1;SDS_P2;PMS_P1;PMS_P2;Temp;Humidity;BMP_temperature;BMP_pressure;BME280_temperature;BME280_humidity;BME280_pressure;Samples;Min_cycle;Max_cycle;Signal;HPM_P1;HPM_P2
2023/09/30 00:01:54;;;;;;;;;;;;;;;24.14;60.69;101490.22;5029985;28;19986;-84
2023/09/30 00:04:20;;;;;;;;;;;;;;;24.17;60.16;101490.28;5021642;28;19921;-84
2023/09/30 00:06:45;;;;;;;;;;;;;;;24.13;60.59;101493.78;5015947;28;19940;-84
2023/09/30 00:09:11;;;;;;;;;;;;;;;24.12;60.17;101485.75;5037409;28;19917;-83
2023/09/30 00:11:37;;;;;;;;;;;;;;;24.12;60.00;101480.41;5028127;28;19948;-84
2023/09/30 00:14:02;;;;;;;;;;;;;;;24.09;60.82;101486.63;5021918;28;20012;-84
2023/09/30 00:16:28;;;;;;;;;;;;;;;24.10;60.43;101488.41;5017434;28;20298;-83
2023/09/30 00:18:54;;;;;;;;;;;;;;;24.13;59.79;101477.78;5025125;28;20400;-84
2023/09/30 00:21:19;;;;;;;;;;;;;;;24.10;60.07;101477.72;5038136;28;20018;-83
2023/09/30 00:23:45;;;;;;;;;;;;;;;24.13;59.95;101483.13;5029440;28;19917;-84
2023/09/30 00:26:10;;;;;;;;;;;;;;;24.08;60.03;101481.28;5029388;28;19983;-85
2023/09/30 00:28:35;;;;;;;;;;;;;;;24.12;60.24;101483.97;5019672;28;19925;-84
2023/09/30 00:31:01;;;;;;;;;;;;;;;24.16;59.72;101483.13;5008989;28;19935;-84
2023/09/30 00:33:26;;;;;;;;;;;;;;;24.16;60.02;101484.91;5016909;28;20023;-85
2023/09/30 00:35:52;;;;;;;;;;;;;;;24.16;59.74;101476.91;5000864;28;19932;-84
2023/09/30 00:38:17;;;;;;;;;;;;;;;24.12;60.77;101477.75;5027522;28;19924;-85
2023/09/30 00:40:47;;;;;;;;;;;;;;;24.09;61.46;101478.63;5016795;28;20384;-83
2023/09/30 00:43:17;;;;;;;;;;;;;;;24.09;61.04;101475.97;5025988;28;20452;-83
2023/09/30 00:45:43;;;;;;;;;;;;;;;24.11;61.16;101474.19;5024758;28;19975;-84
2023/09/30 00:48:09;;;;;;;;;;;;;;;24.14;61.46;101465.31;5019356;28;19925;-84
2023/09/30 00:50:34;;;;;;;;;;;;;;;24.08;60.53;101467.94;5025841;28;19921;-84
2023/09/30 00:53:00;;;;;;;;;;;;;;;24.05;61.05;101466.13;4991796;28;19988;-84
2023/09/30 00:55:25;;;;;;;;;;;;;;;24.08;60.39;101466.16;5001376;28;19933;-83
2023/09/30 00:57:50;;;;;;;;;;;;;;;24.10;61.23;101464.38;4999048;28;19949;-84
2023/09/30 01:00:16;;;;;;;;;;;;;;;24.04;61.52;101466.09;4991414;28;19932;-84
2023/09/30 01:02:44;;;;;;;;;;;;;;;24.01;60.98;101469.66;4993214;28;19971;-84
2023/09/30 01:05:09;;;;;;;;;;;;;;;24.03;60.18;101465.22;4994071;28;20403;-84
2023/09/30 01:07:35;;;;;;;;;;;;;;;24.02;60.09;101460.75;5004694;28;19917;-83
2023/09/30 01:10:01;;;;;;;;;;;;;;;24.04;60.06;101459.00;5009160;28;19924;-83
2023/09/30 01:12:27;;;;;;;;;;;;;;;23.99;60.33;101458.06;4988503;28;19925;-84
2023/09/30 01:14:57;;;;;;;;;;;;;;;23.98;59.53;101465.19;4997586;28;19926;-84
2023/09/30 01:17:22;;;;;;;;;;;;;;;24.00;59.79;101456.28;5005823;28;19928;-83
2023/09/30 01:19:49;;;;;;;;;;;;;;;23.95;59.87;101456.25;5009882;28;20788;-83
2023/09/30 01:22:16;;;;;;;;;;;;;;;23.92;58.90;101449.09;4992605;28;19924;-83
2023/09/30 01:24:42;;;;;;;;;;;;;;;23.87;59.60;101453.50;4994706;28;19918;-83
2023/09/30 01:27:07;;;;;;;;;;;;;;;23.86;59.12;101449.03;5009862;28;20329;-83
2023/09/30 01:29:33;;;;;;;;;;;;;;;23.85;59.00;101449.03;5015077;28;19925;-83
2023/09/30 01:31:58;;;;;;;;;;;;;;;23.83;59.08;101448.09;5002402;28;19944;-82
2023/09/30 01:34:23;;;;;;;;;;;;;;;23.84;58.80;101453.47;5003819;28;19987;-85
2023/09/30 01:36:49;;;;;;;;;;;;;;;23.88;58.76;101452.63;5007190;28;19924;-84
2023/09/30 01:39:14;;;;;;;;;;;;;;;23.85;58.92;101457.91;5011232;28;19992;-83
2023/09/30 01:41:40;;;;;;;;;;;;;;;23.87;58.22;101458.81;5008706;28;19917;-83
2023/09/30 01:44:06;;;;;;;;;;;;;;;23.83;58.35;101461.44;5009706;28;19926;-83
2023/09/30 01:46:32;;;;;;;;;;;;;;;23.91;58.44;101459.75;4996809;28;20738;-83
2023/09/30 01:48:57;;;;;;;;;;;;;;;23.89;58.54;101459.72;4996238;28;19928;-83
2023/09/30 01:51:23;;;;;;;;;;;;;;;23.89;57.93;101458.84;5011915;28;19925;-83
2023/09/30 01:53:49;;;;;;;;;;;;;;;23.85;58.30;101465.91;4980271;28;19924;-83
2023/09/30 01:56:14;;;;;;;;;;;;;;;23.87;58.19;101464.16;5010039;28;20394;-82
2023/09/30 01:58:40;;;;;;;;;;;;;;;23.88;58.16;101455.28;5023666;28;20310;-83
2023/09/30 02:01:05;;;;;;;;;;;;;;;23.87;58.31;101471.28;4977778;28;19925;-84
2023/09/30 02:03:31;;;;;;;;;;;;;;;23.88;58.07;101454.41;5007264;28;19917;-82
2023/09/30 02:05:57;;;;;;;;;;;;;;;23.87;58.31;101455.25;4996154;28;19921;-84
2023/09/30 02:08:22;;;;;;;;;;;;;;;23.88;58.17;101451.75;4987634;28;19927;-84
2023/09/30 02:10:50;;;;;;;;;;;;;;;23.86;58.35;101456.16;5015295;28;19921;-84
2023/09/30 02:13:16;;;;;;;;;;;;;;;23.85;58.22;101451.69;5016356;28;19960;-85
2023/09/30 02:15:42;;;;;;;;;;;;;;;23.89;58.31;101448.19;5006193;28;19969;-83
2023/09/30 02:18:07;;;;;;;;;;;;;;;23.86;58.22;101449.03;4994473;28;20342;-83
2023/09/30 02:20:33;;;;;;;;;;;;;;;23.82;57.99;101449.00;5016708;28;20008;-84
2023/09/30 02:22:59;;;;;;;;;;;;;;;23.78;58.03;101453.41;5011326;28;20444;-84
2023/09/30 02:25:25;;;;;;;;;;;;;;;23.82;58.31;101455.22;5019322;28;19917;-84
2023/09/30 02:27:50;;;;;;;;;;;;;;;23.81;57.59;101445.41;4980497;28;19917;-84
2023/09/30 02:30:16;;;;;;;;;;;;;;;23.81;58.64;101448.09;4993289;28;19933;-84
2023/09/30 02:32:41;;;;;;;;;;;;;;;23.81;57.98;101455.19;4992838;28;19944;-84
2023/09/30 02:35:07;;;;;;;;;;;;;;;23.69;57.84;101426.63;4995178;28;20311;-84
2023/09/30 02:37:35;;;;;;;;;;;;;;;23.78;58.13;101437.41;5006066;28;19924;-83
2023/09/30 02:40:01;;;;;;;;;;;;;;;23.73;58.47;101449.78;4995493;28;20012;-83
2023/09/30 02:42:27;;;;;;;;;;;;;;;23.76;57.83;101447.16;4993960;28;19922;-82
2023/09/30 02:44:52;;;;;;;;;;;;;;;23.73;58.42;101447.09;5005139;28;19917;-84
2023/09/30 02:47:17;;;;;;;;;;;;;;;23.78;58.15;101451.63;5010935;28;19971;-83
2023/09/30 02:49:43;;;;;;;;;;;;;;;23.76;57.64;101455.16;5010607;28;19917;-83
2023/09/30 02:52:08;;;;;;;;;;;;;;;23.79;57.21;101447.19;5027390;28;19960;-83
2023/09/30 02:54:34;;;;;;;;;;;;;;;23.76;57.35;101442.72;5021486;28;19917;-83
2023/09/30 02:56:59;;;;;;;;;;;;;;;23.80;58.06;101440.97;5020824;28;19928;-84
2023/09/30 02:59:25;;;;;;;;;;;;;;;23.79;57.89;101441.84;4997626;28;19917;-84
2023/09/30 03:01:50;;;;;;;;;;;;;;;23.75;58.29;101438.25;5030746;28;19974;-84
2023/09/30 03:04:19;;;;;;;;;;;;;;;23.72;57.52;101443.53;5030500;28;20004;-83
2023/09/30 03:06:44;;;;;;;;;;;;;;;23.76;57.86;101441.81;5021252;28;21637;-83
2023/09/30 03:09:12;;;;;;;;;;;;;;;23.74;58.13;101436.44;5038198;28;19924;-84
2023/09/30 03:11:38;;;;;;;;;;;;;;;23.74;58.37;101435.53;5020796;28;20467;-83
2023/09/30 03:14:03;;;;;;;;;;;;;;;23.74;58.79;101438.22;5013639;28;19918;-83
2023/09/30 03:16:30;;;;;;;;;;;;;;;23.73;58.08;101439.09;5036039;28;20299;-83
2023/09/30 03:18:56;;;;;;;;;;;;;;;23.71;57.90;101438.19;5014600;28;19913;-83
2023/09/30 03:21:21;;;;;;;;;;;;;;;23.70;57.77;101429.28;5034177;28;20024;-83
2023/09/30 03:23:47;;;;;;;;;;;;;;;23.66;57.84;101435.44;5024299;28;19928;-83
2023/09/30 03:26:13;;;;;;;;;;;;;;;23.63;58.17;101434.53;5031074;28;19916;-83
2023/09/30 03:28:39;;;;;;;;;;;;;;;23.67;57.68;101431.91;5018237;28;19917;-84
2023/09/30 03:31:04;;;;;;;;;;;;;;;23.65;58.13;101436.34;5014763;28;19921;-83
2023/09/30 03:33:32;;;;;;;;;;;;;;;23.66;57.79;101430.13;5026205;28;19971;-84
2023/09/30 03:36:00;;;;;;;;;;;;;;;23.69;57.63;101439.94;5027809;28;19921;-84
2023/09/30 03:38:26;;;;;;;;;;;;;;;23.64;57.89;101430.97;5015848;28;19999;-84
2023/09/30 03:40:54;;;;;;;;;;;;;;;23.62;57.55;101430.06;5016110;28;20709;-84
2023/09/30 03:43:20;;;;;;;;;;;;;;;23.55;58.54;101435.34;5027330;28;19925;-83
2023/09/30 03:45:46;;;;;;;;;;;;;;;23.57;57.64;101432.69;5008628;28;19923;-83
2023/09/30 03:48:11;;;;;;;;;;;;;;;23.56;57.39;101426.47;5026246;28;19921;-82
2023/09/30 03:50:37;;;;;;;;;;;;;;;23.58;57.58;101422.06;5029103;28;20429;-82
2023/09/30 03:53:04;;;;;;;;;;;;;;;23.56;57.72;101428.25;5026836;28;19921;-82
2023/09/30 03:55:31;;;;;;;;;;;;;;;23.47;57.91;101431.69;5014624;28;19917;-83
2023/09/30 03:57:57;;;;;;;;;;;;;;;23.53;57.86;101434.41;4995623;28;19921;-84
2023/09/30 04:00:24;;;;;;;;;;;;;;;23.55;57.30;101439.78;4995003;28;19926;-83
2023/09/30 04:02:49;;;;;;;;;;;;;;;23.47;58.07;101429.00;5004947;28;19936;-83
2023/09/30 04:05:16;;;;;;;;;;;;;;;23.53;57.64;101428.19;5000916;28;19917;-83
2023/09/30 04:07:42;;;;;;;;;;;;;;;23.50;57.85;101425.53;4985473;28;20362;-84
2023/09/30 04:10:08;;;;;;;;;;;;;;;23.55;57.40;101424.66;5013210;28;19932;-82
2023/09/30 04:12:33;;;;;;;;;;;;;;;23.45;57.36;101427.22;4998869;28;19924;-83
2023/09/30 04:14:59;;;;;;;;;;;;;;;23.47;57.45;101429.00;5005616;28;20016;-84
2023/09/30 04:17:26;;;;;;;;;;;;;;;23.50;57.30;101423.75;4995392;28;19917;-84
2023/09/30 04:19:52;;;;;;;;;;;;;;;23.49;57.16;101423.72;5007856;28;20382;-83
2023/09/30 04:22:18;;;;;;;;;;;;;;;23.43;57.12;101427.22;5007414;28;20004;-87
2023/09/30 04:24:44;;;;;;;;;;;;;;;23.46;57.44;101429.91;5007860;28;21406;-87
2023/09/30 04:27:09;;;;;;;;;;;;;;;23.42;57.14;101430.75;4977030;28;20413;-85
2023/09/30 04:29:35;;;;;;;;;;;;;;;23.47;57.84;101429.00;5008945;28;19918;-85
2023/09/30 04:32:01;;;;;;;;;;;;;;;23.45;57.38;101429.88;4991233;28;20000;-86
2023/09/30 04:34:45;;;;;;;;;;;;;;;23.52;57.38;101437.09;4972242;28;19921;-86
2023/09/30 04:37:11;;;;;;;;;;;;;;;23.34;57.36;101412.00;4989431;28;19951;-90
2023/09/30 04:39:36;;;;;;;;;;;;;;;23.42;57.36;101445.84;4990668;28;19953;-86
2023/09/30 04:42:03;;;;;;;;;;;;;;;23.37;57.98;101438.69;4969988;28;20294;-87
2023/09/30 04:44:30;;;;;;;;;;;;;;;23.42;57.39;101440.53;4992300;28;20467;-87
2023/09/30 04:46:56;;;;;;;;;;;;;;;23.48;57.11;101436.16;5024168;28;20410;-86
2023/09/30 04:49:23;;;;;;;;;;;;;;;23.43;57.54;101445.88;5019470;28;19936;-86
2023/09/30 04:51:49;;;;;;;;;;;;;;;23.51;57.40;101437.94;5014451;28;19976;-86
2023/09/30 04:58:12;;;;;;;;;;;;;;;23.48;57.41;101444.16;4919401;29;19978;-88
2023/09/30 05:00:41;;;;;;;;;;;;;;;23.52;57.65;101455.75;4915663;29;19918;-88
2023/09/30 05:03:07;;;;;;;;;;;;;;;23.45;57.33;101451.22;4985417;28;19924;-87
2023/09/30 05:05:37;;;;;;;;;;;;;;;23.44;56.93;101447.66;5026181;28;20310;-86
2023/09/30 05:08:04;;;;;;;;;;;;;;;23.45;57.18;101453.88;5029438;28;20529;-87
2023/09/30 05:10:29;;;;;;;;;;;;;;;23.42;57.70;101452.06;5010955;28;20016;-89
2023/09/30 05:13:01;;;;;;;;;;;;;;;23.49;57.38;101456.59;4999910;28;20627;-88
2023/09/30 05:15:29;;;;;;;;;;;;;;;23.48;57.97;101468.16;5025996;28;20004;-88
2023/09/30 05:18:00;;;;;;;;;;;;;;;23.53;57.61;101471.75;5017596;28;19923;-87
2023/09/30 05:20:26;;;;;;;;;;;;;;;23.43;57.38;101464.53;4997914;28;19960;-85
2023/09/30 05:22:51;;;;;;;;;;;;;;;23.44;57.54;101460.09;5028412;28;20038;-86
2023/09/30 05:25:30;;;;;;;;;;;;;;;;;;;;;
2023/09/30 05:28:05;;;;;;;;;;;;;;;23.48;57.94;101464.59;5019559;28;19959;-87
2023/09/30 05:30:33;;;;;;;;;;;;;;;23.47;58.39;101457.44;5001988;28;19917;-87
2023/09/30 05:33:03;;;;;;;;;;;;;;;23.38;58.21;101461.78;4996143;28;19975;-87
2023/09/30 05:35:32;;;;;;;;;;;;;;;23.38;57.96;101466.25;5032631;28;20015;-87
2023/09/30 05:38:07;;;;;;;;;;;;;;;23.38;58.01;101471.56;5003334;28;19921;-87
2023/09/30 05:40:36;;;;;;;;;;;;;;;23.40;58.13;101466.25;5030751;28;19928;-88
2023/09/30 05:43:02;;;;;;;;;;;;;;;23.33;57.70;101474.19;5008280;28;19933;-87
2023/09/30 05:51:28;;;;;;;;;;;;;;;23.29;57.86;101474.13;5023605;28;19928;-88
2023/09/30 05:53:54;;;;;;;;;;;;;;;23.29;57.56;101469.69;5006147;28;20342;-88
2023/09/30 05:56:22;;;;;;;;;;;;;;;23.33;57.33;101478.63;5008842;28;19925;-88
2023/09/30 05:58:51;;;;;;;;;;;;;;;23.27;57.40;101476.75;5030660;28;19917;-86
2023/09/30 06:01:27;;;;;;;;;;;;;;;23.36;57.59;101483.97;5031389;28;19917;-87
2023/09/30 06:04:06;;;;;;;;;;;;;;;23.40;57.27;101476.94;5008166;28;19967;-87
2023/09/30 06:16:02;;;;;;;;;;;;;;;23.25;57.55;101490.94;4968331;28;19941;-85
2023/09/30 06:18:28;;;;;;;;;;;;;;;23.31;57.54;101493.69;4986364;28;19921;-86
2023/09/30 06:20:54;;;;;;;;;;;;;;;23.25;57.75;101486.50;5011703;28;19937;-86
2023/09/30 06:23:20;;;;;;;;;;;;;;;23.29;57.53;101490.13;5011480;28;19924;-84
2023/09/30 06:25:46;;;;;;;;;;;;;;;23.33;57.66;101495.50;5016325;28;20329;-87
2023/09/30 06:28:15;;;;;;;;;;;;;;;23.35;57.99;101488.44;5014883;28;19923;-84
2023/09/30 06:30:42;;;;;;;;;;;;;;;23.41;57.78;101500.94;5012117;28;19923;-87
2023/09/30 06:33:12;;;;;;;;;;;;;;;23.41;57.85;101492.94;5024915;28;20027;-87
2023/09/30 06:35:41;;;;;;;;;;;;;;;23.43;58.02;101484.94;4998692;28;20673;-86
2023/09/30 06:38:07;;;;;;;;;;;;;;;23.41;57.89;101492.03;5015722;28;19924;-85
2023/09/30 06:40:35;;;;;;;;;;;;;;;23.45;57.74;101491.19;5013392;28;19917;-86
2023/09/30 06:43:03;;;;;;;;;;;;;;;23.45;57.87;101486.78;5006469;28;20409;-87
2023/09/30 06:45:32;;;;;;;;;;;;;;;23.42;58.15;101483.19;5012691;28;19921;-88
2023/09/30 06:47:58;;;;;;;;;;;;;;;23.42;58.44;101488.50;4990355;28;20366;-87
2023/09/30 06:50:24;;;;;;;;;;;;;;;23.48;58.60;101485.91;4995047;28;20016;-87
2023/09/30 06:52:52;;;;;;;;;;;;;;;23.42;58.40;101488.50;4995237;28;19925;-87
2023/09/30 06:55:18;;;;;;;;;;;;;;;23.39;58.54;101476.03;4993006;28;19922;-87
2023/09/30 06:57:44;;;;;;;;;;;;;;;23.43;58.26;101475.19;5002354;28;19936;-87
2023/09/30 07:00:11;;;;;;;;;;;;;;;23.44;58.54;101471.66;4994405;28;19917;-86
2023/09/30 07:02:38;;;;;;;;;;;;;;;23.45;58.47;101476.13;4991749;28;19925;-86
2023/09/30 07:05:17;;;;;;;;;;;;;;;23.48;58.52;101473.47;4997038;28;19948;-87
2023/09/30 07:07:43;;;;;;;;;;;;;;;23.50;58.91;101481.50;5002485;28;19917;-86
2023/09/30 07:10:09;;;;;;;;;;;;;;;23.46;58.90;101485.88;4991644;28;19914;-85
2023/09/30 07:12:35;;;;;;;;;;;;;;;23.49;58.67;101483.25;4986587;28;20399;-84
2023/09/30 07:15:04;;;;;;;;;;;;;;;23.53;58.65;101489.53;4981926;28;19963;-85
2023/09/30 07:17:30;;;;;;;;;;;;;;;23.55;58.34;101487.78;4985719;28;20043;-85
2023/09/30 07:19:57;;;;;;;;;;;;;;;23.55;58.75;101482.44;4983987;28;20390;-87
2023/09/30 07:22:22;;;;;;;;;;;;;;;23.56;58.60;101485.13;5011380;28;19920;-86
2023/09/30 07:24:48;;;;;;;;;;;;;;;23.63;58.81;101493.22;4994431;28;19921;-86
2023/09/30 07:27:13;;;;;;;;;;;;;;;23.53;59.41;101485.06;4974401;28;19917;-85
2023/09/30 07:29:39;;;;;;;;;;;;;;;23.55;59.30;101493.09;5009514;28;20223;-87
2023/09/30 07:32:04;;;;;;;;;;;;;;;23.55;59.26;101493.09;4994360;28;19929;-87
2023/09/30 07:34:30;;;;;;;;;;;;;;;23.56;59.08;101489.59;4973439;28;19975;-87
2023/09/30 07:36:55;;;;;;;;;;;;;;;23.61;59.32;101482.50;4988322;28;19949;-86
2023/09/30 07:39:21;;;;;;;;;;;;;;;23.57;59.39;101486.91;5009082;28;19914;-86
2023/09/30 07:41:46;;;;;;;;;;;;;;;23.52;60.25;101491.31;4975355;28;19972;-86
2023/09/30 07:44:12;;;;;;;;;;;;;;;23.53;60.47;101493.06;4991664;28;19917;-86
2023/09/30 07:46:37;;;;;;;;;;;;;;;23.54;61.99;101494.88;4983552;28;19964;-87
2023/09/30 07:49:03;;;;;;;;;;;;;;;23.44;62.08;101487.63;5008201;28;19917;-86
2023/09/30 07:51:29;;;;;;;;;;;;;;;23.47;62.31;101487.66;5001527;28;19921;-87
2023/09/30 07:53:55;;;;;;;;;;;;;;;23.54;62.66;101494.00;5008464;28;19968;-86
2023/09/30 07:56:21;;;;;;;;;;;;;;;23.49;63.05;101493.91;4993158;28;20413;-87
2023/09/30 07:58:48;;;;;;;;;;;;;;;23.48;62.83;101496.59;5008054;28;19913;-86
2023/09/30 08:01:14;;;;;;;;;;;;;;;23.53;62.19;101495.75;5010716;28;19960;-86
2023/09/30 08:03:40;;;;;;;;;;;;;;;23.57;61.73;101500.25;5004272;28;20622;-86
2023/09/30 08:06:07;;;;;;;;;;;;;;;23.50;63.86;101498.38;5025891;28;20008;-87
2023/09/30 08:08:34;;;;;;;;;;;;;;;23.61;62.69;101501.19;5012490;28;19918;-87
2023/09/30 08:10:59;;;;;;;;;;;;;;;23.56;62.51;101505.56;5028325;28;19989;-86
2023/09/30 08:13:25;;;;;;;;;;;;;;;23.53;63.08;101503.75;5014035;28;20011;-86
2023/09/30 08:15:53;;;;;;;;;;;;;;;23.49;63.12;101501.03;5012851;28;19976;-85
2023/09/30 08:18:18;;;;;;;;;;;;;;;23.60;61.35;101503.81;5010404;28;19917;-86
2023/09/30 08:20:44;;;;;;;;;;;;;;;23.63;62.14;101510.09;5025897;28;20012;-85
2023/09/30 08:23:11;;;;;;;;;;;;;;;23.53;62.72;101503.75;5023333;28;20012;-85
2023/09/30 08:25:37;;;;;;;;;;;;;;;23.57;62.02;101504.69;5000977;28;19914;-84
2023/09/30 08:28:03;;;;;;;;;;;;;;;23.54;62.92;101502.88;4991438;28;20405;-86
2023/09/30 08:30:29;;;;;;;;;;;;;;;23.52;62.95;101496.63;5002360;28;19913;-87
2023/09/30 08:32:56;;;;;;;;;;;;;;;23.48;62.56;101502.81;5009892;28;19922;-86
2023/09/30 08:35:21;;;;;;;;;;;;;;;23.52;62.38;101506.41;4994899;28;19918;-86
2023/09/30 08:37:46;;;;;;;;;;;;;;;23.56;61.93;101503.78;5008131;28;20558;-87
2023/09/30 08:40:12;;;;;;;;;;;;;;;23.54;63.21;101496.66;5013311;28;19927;-87
2023/09/30 08:42:39;;;;;;;;;;;;;;;23.48;63.21;101493.91;5011560;28;19921;-85
2023/09/30 08:45:07;;;;;;;;;;;;;;;23.60;62.67;101498.47;5008542;28;19914;-86
2023/09/30 08:47:34;;;;;;;;;;;;;;;23.61;63.06;101495.84;5010826;28;19957;-87
2023/09/30 08:50:05;;;;;;;;;;;;;;;23.53;63.13;101498.41;5010312;28;19989;-86
2023/09/30 08:52:31;;;;;;;;;;;;;;;23.52;62.94;101490.41;5025625;28;20398;-87
2023/09/30 08:54:57;;;;;;;;;;;;;;;23.60;63.12;101496.75;4994345;28;19925;-85
2023/09/30 08:57:24;;;;;;;;;;;;;;;23.65;63.34;101484.34;5030569;28;19913;-84
2023/09/30 08:59:50;;;;;;;;;;;;;;;23.60;62.22;101486.06;5031049;28;19917;-85
2023/09/30 09:02:15;;;;;;;;;;;;;;;23.65;63.61;101481.69;5007023;28;19927;-85
2023/09/30 09:04:41;;;;;;;;;;;;;;;23.70;63.39;101484.38;5029701;28;19913;-84
2023/09/30 09:07:06;;;;;;;;;;;;;;;23.76;63.90;101481.81;5009772;28;19925;-85
2023/09/30 09:09:32;;;;;;;;;;;;;;;23.73;63.04;101482.66;5012775;28;20004;-84
2023/09/30 09:11:58;;;;;;;;;;;;;;;23.69;63.05;101486.16;5030556;28;20016;-85
2023/09/30 09:14:53;;;;;;;;;;;;;;;23.64;62.57;101479.88;4996545;28;20361;-85
2023/09/30 09:17:18;;;;;;;;;;;;;;;23.69;62.74;101487.94;5013868;28;19917;-85
2023/09/30 09:19:44;;;;;;;;;;;;;;;23.74;62.33;101483.56;5028511;28;20059;-85
2023/09/30 09:22:09;;;;;;;;;;;;;;;23.74;62.93;101484.44;5027740;28;19921;-84
2023/09/30 09:24:36;;;;;;;;;;;;;;;23.78;62.57;101483.63;5030722;28;19921;-84
2023/09/30 09:27:06;;;;;;;;;;;;;;;23.77;62.81;101491.63;5029866;28;19917;-85
2023/09/30 09:29:31;;;;;;;;;;;;;;;23.71;63.75;101486.19;5028212;28;19921;-85
2023/09/30 09:32:14;;;;;;;;;;;;;;;23.66;62.88;101478.13;5026391;28;19929;-86
2023/09/30 09:34:40;;;;;;;;;;;;;;;23.65;61.74;101487.00;5027697;28;19923;-86
2023/09/30 09:37:25;;;;;;;;;;;;;;;23.69;61.57;101482.63;5027552;28;19917;-87
2023/09/30 09:39:57;;;;;;;;;;;;;;;23.67;61.36;101481.69;5025819;28;20022;-85
2023/09/30 09:42:27;;;;;;;;;;;;;;;23.68;62.65;101475.47;5027742;28;20424;-85
2023/09/30 09:44:56;;;;;;;;;;;;;;;23.72;62.43;101477.31;5018520;28;19920;-87
2023/09/30 09:47:22;;;;;;;;;;;;;;;23.69;60.35;101474.63;5015270;28;19917;-86
2023/09/30 09:49:48;;;;;;;;;;;;;;;23.65;61.83;101465.69;5026540;28;19928;-83
2023/09/30 09:52:15;;;;;;;;;;;;;;;23.71;61.92;101468.41;5026205;28;19921;-84
2023/09/30 09:54:41;;;;;;;;;;;;;;;23.71;61.92;101456.88;5028234;28;20375;-84
2023/09/30 09:57:07;;;;;;;;;;;;;;;23.62;61.58;101447.00;5013865;28;19929;-86
2023/09/30 09:59:32;;;;;;;;;;;;;;;23.62;62.04;101451.41;5013628;28;19924;-85
2023/09/30 10:01:58;;;;;;;;;;;;;;;23.61;63.13;101449.63;5013328;28;19979;-85
2023/09/30 10:04:26;;;;;;;;;;;;;;;23.68;62.83;101447.03;5009863;28;19917;-85
2023/09/30 10:06:52;;;;;;;;;;;;;;;23.69;62.72;101446.16;5027968;28;19983;-85
2023/09/30 10:09:18;;;;;;;;;;;;;;;23.66;63.74;101450.56;5028417;28;19921;-83
2023/09/30 10:11:43;;;;;;;;;;;;;;;23.73;62.36;101444.44;5021316;28;19961;-83
2023/09/30 10:14:14;;;;;;;;;;;;;;;23.75;62.00;101437.34;5030266;28;19990;-85
2023/09/30 10:16:43;;;;;;;;;;;;;;;23.74;60.93;101433.75;5026824;28;20670;-83
2023/09/30 10:19:09;;;;;;;;;;;;;;;23.77;61.88;101432.97;5033208;28;19996;-84
2023/09/30 10:21:34;;;;;;;;;;;;;;;23.74;61.68;101425.75;5013889;28;19954;-85
2023/09/30 10:24:20;;;;;;;;;;;;;;;23.77;61.59;101427.63;5032581;28;19921;-84
2023/09/30 10:26:46;;;;;;;;;;;;;;;23.76;62.17;101425.81;5021896;28;20459;-85
2023/09/30 10:29:11;;;;;;;;;;;;;;;23.76;62.19;101432.03;5031406;28;19916;-83
2023/09/30 10:31:49;;;;;;;;;;;;;;;23.75;62.39;101432.91;5026859;28;19925;-84
2023/09/30 10:34:18;;;;;;;;;;;;;;;23.79;62.08;101433.84;5025425;28;19932;-83
2023/09/30 10:36:43;;;;;;;;;;;;;;;23.80;60.57;101427.63;5007069;28;19916;-84
2023/09/30 10:39:14;;;;;;;;;;;;;;;23.80;61.23;101424.97;5018319;28;20436;-83
2023/09/30 10:41:40;;;;;;;;;;;;;;;23.79;59.66;101428.50;5005468;28;19940;-84
2023/09/30 10:44:25;;;;;;;;;;;;;;;23.77;59.92;101430.28;5027824;28;20390;-83
2023/09/30 10:46:54;;;;;;;;;;;;;;;23.86;60.35;101429.50;5020329;28;20313;-84
2023/09/30 10:49:22;;;;;;;;;;;;;;;23.83;60.28;101422.31;5013335;28;19921;-82
2023/09/30 10:51:49;;;;;;;;;;;;;;;23.81;60.14;101421.41;5021776;28;19933;-83
2023/09/30 10:54:14;;;;;;;;;;;;;;;23.84;58.48;101424.13;4989608;28;19925;-84
2023/09/30 10:56:40;;;;;;;;;;;;;;;23.83;59.22;101422.31;5002257;28;19940;-84
2023/09/30 10:59:05;;;;;;;;;;;;;;;23.84;59.13;101420.56;4998618;28;19918;-79
2023/09/30 11:01:34;;;;;;;;;;;;;;;23.86;57.74;101422.38;5014065;28;19992;-84
2023/09/30 11:04:05;;;;;;;;;;;;;;;23.85;58.92;101417.91;5014904;28;20371;-81
2023/09/30 11:06:30;;;;;;;;;;;;;;;23.89;58.71;101424.16;5010373;28;19918;-81
2023/09/30 11:08:58;;;;;;;;;;;;;;;23.90;58.43;101421.53;4998769;28;19920;-82
2023/09/30 11:11:42;;;;;;;;;;;;;;;23.89;58.90;101417.06;5000657;28;19921;-80
2023/09/30 11:14:36;;;;;;;;;;;;;;;23.91;57.94;101414.41;5010790;28;19918;-81
2023/09/30 11:17:03;;;;;;;;;;;;;;;23.91;58.99;101415.28;4998000;28;20532;-81
2023/09/30 11:19:49;;;;;;;;;;;;;;;23.96;59.84;101410.00;5011487;28;19920;-81
2023/09/30 11:22:15;;;;;;;;;;;;;;;23.99;59.31;101410.03;4986862;28;19924;-80
2023/09/30 11:24:41;;;;;;;;;;;;;;;23.98;59.99;101402.91;5007094;28;19917;-81
2023/09/30 11:27:07;;;;;;;;;;;;;;;24.00;61.10;101400.25;5020557;28;20433;-80
2023/09/30 11:29:32;;;;;;;;;;;;;;;24.00;59.58;101406.47;4989129;28;19918;-79
2023/09/30 11:31:57;;;;;;;;;;;;;;;24.07;61.83;101399.44;5020471;28;19979;-80
2023/09/30 11:34:36;;;;;;;;;;;;;;;24.07;60.43;101400.34;5012680;28;19921;-79
2023/09/30 11:37:01;;;;;;;;;;;;;;;24.12;60.79;101397.69;5011386;28;19957;-82
2023/09/30 11:39:27;;;;;;;;;;;;;;;24.10;60.78;101395.00;5010866;28;20352;-82
2023/09/30 11:41:55;;;;;;;;;;;;;;;24.14;60.55;101390.59;5010952;28;20004;-82
2023/09/30 11:44:20;;;;;;;;;;;;;;;24.14;60.72;101395.94;5012071;28;20318;-80
2023/09/30 11:46:49;;;;;;;;;;;;;;;24.15;61.01;101392.38;4991863;28;19917;-81
2023/09/30 11:49:23;;;;;;;;;;;;;;;24.09;60.62;101389.69;5010971;28;20305;-80
2023/09/30 11:51:49;;;;;;;;;;;;;;;24.06;61.79;101384.31;5018609;28;19947;-81
2023/09/30 11:54:17;;;;;;;;;;;;;;;24.10;61.17;101392.34;4996126;28;20143;-80
2023/09/30 11:56:42;;;;;;;;;;;;;;;24.07;61.51;101387.00;4993268;28;19921;-82
2023/09/30 11:59:10;;;;;;;;;;;;;;;24.22;61.19;101383.56;4996874;28;19914;-82
2023/09/30 12:01:37;;;;;;;;;;;;;;;24.29;60.63;101381.81;5003139;28;20295;-81
2023/09/30 12:04:03;;;;;;;;;;;;;;;24.23;61.32;101379.09;5000023;28;19928;-82
2023/09/30 12:06:29;;;;;;;;;;;;;;;24.26;61.79;101372.00;5013828;28;19913;-80
2023/09/30 12:08:54;;;;;;;;;;;;;;;24.27;61.86;101368.44;5012211;28;19947;-80
2023/09/30 12:11:20;;;;;;;;;;;;;;;24.31;61.77;101367.59;5010646;28;19975;-81
2023/09/30 12:13:48;;;;;;;;;;;;;;;24.32;61.88;101372.06;4989869;28;19914;-80
2023/09/30 12:16:13;;;;;;;;;;;;;;;24.32;61.62;101363.13;4995294;28;19965;-80
2023/09/30 12:18:40;;;;;;;;;;;;;;;24.34;62.11;101354.28;5008979;28;19976;-81
2023/09/30 12:21:07;;;;;;;;;;;;;;;24.39;61.61;101365.88;5011752;28;19936;-81
2023/09/30 12:23:33;;;;;;;;;;;;;;;24.38;61.87;101361.44;5010713;28;19939;-81
2023/09/30 12:25:58;;;;;;;;;;;;;;;24.39;61.67;101357.84;5008277;28;20374;-81
2023/09/30 12:28:24;;;;;;;;;;;;;;;24.38;62.12;101361.44;5008345;28;19928;-81
2023/09/30 12:30:49;;;;;;;;;;;;;;;24.41;61.74;101357.00;5026004;28;19914;-81
2023/09/30 12:33:15;;;;;;;;;;;;;;;24.42;61.55;101353.44;5010278;28;19944;-83
2023/09/30 12:35:40;;;;;;;;;;;;;;;24.38;61.97;101345.41;5013848;28;19918;-84
2023/09/30 12:38:05;;;;;;;;;;;;;;;24.42;62.02;101348.09;5009506;28;19921;-83
2023/09/30 12:40:31;;;;;;;;;;;;;;;24.41;62.01;101348.97;4996346;28;20016;-83
2023/09/30 12:42:57;;;;;;;;;;;;;;;24.38;61.76;101350.75;5008245;28;19916;-82
2023/09/30 12:45:23;;;;;;;;;;;;;;;24.41;62.01;101344.53;4987911;28;19925;-84
2023/09/30 12:47:52;;;;;;;;;;;;;;;24.47;62.28;101355.25;4988332;28;19913;-83
2023/09/30 12:50:18;;;;;;;;;;;;;;;24.49;62.46;101350.84;5010689;28;19917;-84
2023/09/30 12:52:44;;;;;;;;;;;;;;;24.44;62.27;101346.31;4998066;28;19926;-83
2023/09/30 12:55:10;;;;;;;;;;;;;;;24.44;62.26;101349.00;5006270;28;19987;-83
2023/09/30 12:57:35;;;;;;;;;;;;;;;24.46;62.13;101347.22;4994212;28;19953;-81